createdAt,value
2019-03-13T00:00:34.214Z,47.62
2019-03-13T00:01:27.220Z,47.11
2019-03-13T00:02:27.624Z,47.62
2019-03-13T00:03:27.053Z,47.41
2019-03-13T00:04:27.027Z,46.59
2019-03-13T00:05:27.004Z,47.31
2019-03-13T00:06:26.951Z,47.52
2019-03-13T00:07:26.917Z,47.52
2019-03-13T00:08:26.882Z,47.11
2019-03-13T00:09:26.854Z,47.13
2019-03-13T00:10:26.847Z,47.82
2019-03-13T00:11:26.787Z,48.13
2019-03-13T00:12:26.769Z,47.92
2019-03-13T00:13:26.788Z,47.62
2019-03-13T00:14:26.697Z,48.24
2019-03-13T00:15:26.699Z,47.95
2019-03-13T00:16:26.633Z,48.16
2019-03-13T00:17:26.600Z,47.74
2019-03-13T00:18:26.568Z,48.13
2019-03-13T00:19:26.540Z,47.72
2019-03-13T00:20:26.532Z,48.44
2019-03-13T00:21:26.492Z,48.03
2019-03-13T00:22:26.446Z,48.24
2019-03-13T00:23:26.427Z,47.92
2019-03-13T00:24:26.381Z,48.44
2019-03-13T00:25:26.381Z,48.46
2019-03-13T00:26:26.320Z,48.57
2019-03-13T00:27:26.286Z,48.05
2019-03-13T00:28:26.254Z,48.16
2019-03-13T00:29:26.225Z,48.05
2019-03-13T00:30:26.221Z,48.46
2019-03-13T00:31:26.156Z,48.77
2019-03-13T00:32:26.125Z,48.05
2019-03-13T00:33:26.091Z,48.46
2019-03-13T00:34:26.065Z,47.82
2019-03-13T00:35:26.056Z,48.05
2019-03-13T00:36:26.623Z,48.16
2019-03-13T00:37:25.967Z,48.67
2019-03-13T00:38:25.936Z,47.85
2019-03-13T00:39:25.917Z,47.74
2019-03-13T00:40:25.904Z,48.54
2019-03-13T00:41:25.842Z,48.03
2019-03-13T00:42:26.624Z,48.24
2019-03-13T00:43:25.784Z,47.74
2019-03-13T00:44:26.626Z,48.03
2019-03-13T00:45:25.750Z,47.52
2019-03-13T00:46:25.690Z,47.52
2019-03-13T00:47:25.648Z,47.92
2019-03-13T00:48:25.625Z,48.03
2019-03-13T00:49:25.592Z,48.24
2019-03-13T00:50:25.600Z,47.95
2019-03-13T00:51:25.579Z,48.75
2019-03-13T00:52:25.493Z,48.03
2019-03-13T00:53:25.559Z,47.72
2019-03-13T00:54:25.431Z,47.72
2019-03-13T00:55:25.399Z,48.24
2019-03-13T00:56:25.390Z,48.44
2019-03-13T00:57:26.126Z,48.34
2019-03-13T00:58:25.578Z,48.26
2019-03-13T00:59:25.280Z,48.13
2019-03-13T01:00:25.240Z,47.52
2019-03-13T01:01:25.229Z,48.44
2019-03-13T01:02:25.186Z,48.05
2019-03-13T01:03:25.147Z,47.62
2019-03-13T01:04:25.119Z,48.34
2019-03-13T01:05:25.097Z,47.72
2019-03-13T01:06:25.078Z,47.95
2019-03-13T01:07:25.021Z,48.46
2019-03-13T01:08:24.987Z,48.24
2019-03-13T01:09:24.958Z,48.67
2019-03-13T01:10:24.928Z,48.44
2019-03-13T01:11:27.287Z,48.75
2019-03-13T01:12:27.635Z,48.24
2019-03-13T01:13:24.836Z,48.44
2019-03-13T01:14:24.802Z,49.26
2019-03-13T01:15:24.771Z,50.81
2019-03-13T01:16:24.771Z,51.22
2019-03-13T01:17:24.711Z,52.66
2019-03-13T01:18:24.677Z,52.04
2019-03-13T01:19:24.686Z,52.86
2019-03-13T01:20:25.130Z,52.25
2019-03-13T01:21:24.583Z,51.84
2019-03-13T01:22:24.667Z,51.53
2019-03-13T01:23:24.515Z,52.12
2019-03-13T01:24:24.486Z,51.84
2019-03-13T01:25:24.454Z,51.73
2019-03-13T01:26:24.432Z,52.14
2019-03-13T01:27:24.416Z,52.66
2019-03-13T01:28:24.374Z,52.86
2019-03-13T01:29:24.330Z,52.66
2019-03-13T01:30:24.323Z,53.38
2019-03-13T01:31:24.282Z,55.13
2019-03-13T01:32:24.259Z,55.02
2019-03-13T01:33:24.201Z,55.21
2019-03-13T01:34:24.166Z,56.46
2019-03-13T01:35:24.141Z,56.67
2019-03-13T01:36:24.116Z,58.21
2019-03-13T01:37:24.103Z,57.29
2019-03-13T01:38:24.044Z,56.90
2019-03-13T01:39:24.017Z,59.03
2019-03-13T01:40:23.992Z,59.37
2019-03-13T01:41:23.947Z,59.03
2019-03-13T01:42:24.177Z,60.06
2019-03-13T01:43:23.898Z,59.99
2019-03-13T01:44:23.861Z,60.37
2019-03-13T01:45:23.828Z,60.89
2019-03-13T01:46:23.798Z,61.30
2019-03-13T01:47:23.794Z,62.15
2019-03-13T01:48:23.727Z,61.53
2019-03-13T01:49:23.697Z,63.07
2019-03-13T01:50:23.676Z,62.77
2019-03-13T01:51:23.633Z,63.39
2019-03-13T01:52:23.631Z,63.52
2019-03-13T01:53:23.596Z,64.54
2019-03-13T01:54:23.542Z,64.86
2019-03-13T01:55:23.516Z,64.54
2019-03-13T01:56:24.136Z,65.71
2019-03-13T01:57:23.466Z,65.68
2019-03-13T01:58:24.133Z,66.84
2019-03-13T01:59:23.384Z,66.74
2019-03-13T02:00:23.351Z,67.05
2019-03-13T02:01:23.312Z,66.94
2019-03-13T02:02:23.342Z,67.57
2019-03-13T02:03:23.255Z,67.87
2019-03-13T02:04:24.142Z,68.42
2019-03-13T02:05:23.188Z,68.18
2019-03-13T02:06:23.164Z,68.93
2019-03-13T02:07:23.165Z,68.80
2019-03-13T02:08:23.098Z,69.35
2019-03-13T02:09:23.645Z,69.35
2019-03-13T02:10:23.035Z,68.49
2019-03-13T02:11:22.997Z,69.04
2019-03-13T02:12:22.974Z,69.65
2019-03-13T02:13:22.975Z,68.73
2019-03-13T02:14:22.905Z,68.49
2019-03-13T02:15:22.869Z,68.29
2019-03-13T02:16:22.838Z,68.70
2019-03-13T02:17:22.814Z,69.31
2019-03-13T02:18:22.809Z,69.45
2019-03-13T02:19:22.739Z,70.48
2019-03-13T02:20:22.709Z,70.17
2019-03-13T02:21:22.678Z,70.28
2019-03-13T02:22:22.644Z,71.00
2019-03-13T02:23:22.644Z,70.58
2019-03-13T02:24:22.588Z,71.30
2019-03-13T02:25:22.548Z,71.30
2019-03-13T02:26:22.515Z,71.51
2019-03-13T02:27:22.484Z,71.00
2019-03-13T02:28:22.514Z,71.55
2019-03-13T02:29:22.431Z,71.51
2019-03-13T02:30:23.170Z,71.41
2019-03-13T02:31:22.368Z,71.41
2019-03-13T02:32:22.326Z,71.20
2019-03-13T02:33:22.323Z,71.41
2019-03-13T02:34:23.146Z,71.61
2019-03-13T02:35:22.231Z,70.79
2019-03-13T02:36:22.201Z,71.30
2019-03-13T02:37:22.169Z,70.89
2019-03-13T02:38:22.194Z,70.89
2019-03-13T02:39:22.103Z,69.76
2019-03-13T02:40:22.068Z,70.07
2019-03-13T02:41:22.044Z,70.07
2019-03-13T02:42:22.012Z,69.73
2019-03-13T02:43:22.002Z,69.45
2019-03-13T02:44:21.941Z,69.04
2019-03-13T02:45:21.911Z,68.39
2019-03-13T02:46:22.646Z,68.49
2019-03-13T02:47:21.891Z,68.49
2019-03-13T02:48:21.846Z,67.46
2019-03-13T02:49:21.792Z,67.80
2019-03-13T02:50:21.761Z,67.57
2019-03-13T02:51:21.715Z,66.53
2019-03-13T02:52:21.687Z,66.33
2019-03-13T02:53:21.703Z,65.99
2019-03-13T02:54:21.627Z,65.40
2019-03-13T02:55:22.195Z,65.19
2019-03-13T02:56:21.596Z,64.65
2019-03-13T02:57:21.546Z,64.86
2019-03-13T02:58:21.545Z,64.54
2019-03-13T02:59:21.478Z,64.75
2019-03-13T03:00:21.434Z,64.75
2019-03-13T03:01:21.400Z,64.54
2019-03-13T03:02:21.373Z,64.75
2019-03-13T03:03:21.367Z,63.90
2019-03-13T03:04:21.302Z,64.72
2019-03-13T03:05:22.154Z,64.65
2019-03-13T03:06:21.250Z,65.99
2019-03-13T03:07:21.256Z,67.77
2019-03-13T03:08:21.212Z,68.90
2019-03-13T03:09:21.146Z,69.76
2019-03-13T03:10:21.648Z,70.62
2019-03-13T03:11:21.080Z,71.23
2019-03-13T03:12:21.049Z,71.58
2019-03-13T03:13:21.013Z,72.09
2019-03-13T03:14:21.007Z,72.71
2019-03-13T03:15:20.948Z,72.85
2019-03-13T03:16:20.944Z,72.64
2019-03-13T03:17:20.886Z,73.36
2019-03-13T03:18:20.867Z,73.36
2019-03-13T03:19:20.869Z,73.77
2019-03-13T03:20:20.791Z,73.47
2019-03-13T03:21:20.764Z,73.71
2019-03-13T03:22:20.751Z,73.39
2019-03-13T03:23:20.691Z,72.02
2019-03-13T03:24:20.697Z,72.13
2019-03-13T03:25:21.167Z,71.81
2019-03-13T03:26:20.588Z,72.57
2019-03-13T03:27:20.556Z,71.75
2019-03-13T03:28:20.523Z,71.44
2019-03-13T03:29:20.759Z,71.02
2019-03-13T03:30:21.150Z,71.44
2019-03-13T03:31:20.426Z,71.67
2019-03-13T03:32:20.393Z,72.09
2019-03-13T03:33:21.291Z,72.19
2019-03-13T03:34:20.686Z,72.81
2019-03-13T03:35:20.317Z,72.19
2019-03-13T03:36:20.264Z,72.19
2019-03-13T03:37:20.228Z,72.19
2019-03-13T03:38:21.149Z,72.19
2019-03-13T03:39:20.693Z,71.78
2019-03-13T03:40:23.105Z,72.19
2019-03-13T03:41:20.096Z,71.98
2019-03-13T03:42:20.063Z,72.19
2019-03-13T03:43:20.031Z,71.88
2019-03-13T03:44:20.054Z,71.78
2019-03-13T03:45:19.968Z,71.78
2019-03-13T03:46:19.932Z,71.78
2019-03-13T03:47:19.900Z,71.78
2019-03-13T03:48:20.650Z,71.26
2019-03-13T03:49:19.858Z,71.44
2019-03-13T03:50:19.799Z,71.57
2019-03-13T03:51:19.773Z,70.75
2019-03-13T03:52:19.737Z,70.43
2019-03-13T03:53:19.699Z,70.64
2019-03-13T03:54:19.688Z,70.09
2019-03-13T03:55:19.634Z,69.89
2019-03-13T03:56:19.604Z,69.92
2019-03-13T03:57:19.578Z,70.23
2019-03-13T03:58:19.534Z,70.12
2019-03-13T03:59:19.525Z,70.03
2019-03-13T04:00:19.477Z,70.26
2019-03-13T04:01:19.449Z,70.64
2019-03-13T04:02:19.402Z,70.47
2019-03-13T04:03:19.365Z,70.37
2019-03-13T04:04:19.360Z,70.88
2019-03-13T04:05:20.174Z,70.57
2019-03-13T04:06:20.158Z,70.06
2019-03-13T04:07:19.265Z,70.47
2019-03-13T04:08:20.155Z,70.54
2019-03-13T04:09:20.154Z,70.64
2019-03-13T04:10:19.163Z,70.98
2019-03-13T04:11:19.123Z,71.06
2019-03-13T04:12:19.077Z,70.85
2019-03-13T04:13:19.035Z,70.78
2019-03-13T04:14:19.094Z,68.68
2019-03-13T04:15:19.034Z,67.75
2019-03-13T04:16:18.938Z,67.85
2019-03-13T04:17:18.902Z,68.40
2019-03-13T04:18:18.879Z,68.27
2019-03-13T04:19:18.836Z,67.78
2019-03-13T04:20:19.220Z,67.44
2019-03-13T04:21:18.775Z,67.34
2019-03-13T04:22:18.734Z,67.27
2019-03-13T04:23:18.702Z,67.24
2019-03-13T04:24:18.692Z,67.44
2019-03-13T04:25:18.662Z,67.78
2019-03-13T04:26:18.613Z,68.40
2019-03-13T04:27:18.567Z,68.92
2019-03-13T04:28:19.167Z,68.30
2019-03-13T04:29:18.506Z,68.19
2019-03-13T04:30:18.501Z,68.30
2019-03-13T04:31:18.437Z,67.99
2019-03-13T04:32:18.405Z,67.88
2019-03-13T04:33:18.368Z,68.09
2019-03-13T04:34:18.336Z,67.99
2019-03-13T04:35:18.429Z,68.40
2019-03-13T04:36:18.270Z,68.09
2019-03-13T04:37:18.262Z,68.33
2019-03-13T04:38:18.204Z,68.54
2019-03-13T04:39:18.167Z,69.16
2019-03-13T04:40:18.162Z,69.67
2019-03-13T04:41:18.114Z,70.09
2019-03-13T04:42:18.072Z,70.09
2019-03-13T04:43:18.039Z,69.98
2019-03-13T04:44:18.004Z,70.09
2019-03-13T04:45:18.192Z,70.29
2019-03-13T04:46:17.940Z,69.81
2019-03-13T04:47:17.908Z,69.71
2019-03-13T04:48:17.870Z,69.71
2019-03-13T04:49:18.665Z,69.22
2019-03-13T04:50:17.836Z,68.77
2019-03-13T04:51:17.768Z,68.70
2019-03-13T04:52:17.748Z,69.01
2019-03-13T04:53:18.690Z,69.22
2019-03-13T04:54:17.675Z,69.32
2019-03-13T04:55:17.661Z,70.36
2019-03-13T04:56:17.606Z,70.08
2019-03-13T04:57:17.574Z,69.87
2019-03-13T04:58:18.162Z,69.77
2019-03-13T04:59:17.503Z,69.77
2019-03-13T05:00:17.503Z,69.77
2019-03-13T05:01:17.436Z,70.08
2019-03-13T05:02:17.403Z,70.11
2019-03-13T05:03:17.366Z,70.84
2019-03-13T05:04:18.161Z,71.04
2019-03-13T05:05:17.699Z,71.18
2019-03-13T05:06:17.275Z,71.28
2019-03-13T05:07:17.242Z,70.87
2019-03-13T05:08:17.198Z,70.67
2019-03-13T05:09:17.661Z,70.67
2019-03-13T05:10:17.159Z,70.76
2019-03-13T05:11:17.099Z,70.87
2019-03-13T05:12:17.123Z,70.67
2019-03-13T05:13:17.030Z,70.97
2019-03-13T05:14:16.997Z,71.18
2019-03-13T05:15:16.985Z,71.39
2019-03-13T05:16:16.929Z,71.70
2019-03-13T05:17:16.891Z,71.84
2019-03-13T05:18:16.860Z,72.36
2019-03-13T05:19:16.827Z,71.94
2019-03-13T05:20:16.815Z,71.94
2019-03-13T05:21:16.802Z,72.15
2019-03-13T05:22:16.722Z,72.05
2019-03-13T05:23:16.686Z,71.73
2019-03-13T05:24:16.655Z,71.84
2019-03-13T05:25:19.095Z,71.84
2019-03-13T05:26:16.589Z,72.15
2019-03-13T05:27:16.549Z,71.73
2019-03-13T05:28:16.514Z,71.70
2019-03-13T05:29:16.508Z,72.05
2019-03-13T05:30:16.443Z,72.15
2019-03-13T05:31:16.462Z,72.56
2019-03-13T05:32:16.382Z,72.39
2019-03-13T05:33:16.346Z,72.49
2019-03-13T05:34:17.172Z,72.91
2019-03-13T05:35:16.274Z,72.49
2019-03-13T05:36:16.989Z,72.70
2019-03-13T05:37:17.186Z,72.70
2019-03-13T05:38:16.169Z,72.91
2019-03-13T05:39:16.139Z,72.60
2019-03-13T05:40:16.104Z,72.28
2019-03-13T05:41:16.088Z,72.60
2019-03-13T05:42:16.034Z,72.60
2019-03-13T05:43:16.002Z,72.80
2019-03-13T05:44:15.964Z,72.22
2019-03-13T05:45:15.931Z,72.49
2019-03-13T05:46:15.921Z,72.39
2019-03-13T05:47:16.662Z,72.18
2019-03-13T05:48:15.826Z,72.28
2019-03-13T05:49:16.662Z,72.18
2019-03-13T05:50:15.759Z,71.97
2019-03-13T05:51:15.748Z,71.87
2019-03-13T05:52:15.697Z,71.66
2019-03-13T05:53:16.166Z,71.53
2019-03-13T05:54:15.622Z,71.32
2019-03-13T05:55:15.586Z,71.22
2019-03-13T05:56:15.579Z,70.80
2019-03-13T05:57:15.528Z,70.90
2019-03-13T05:58:15.482Z,70.90
2019-03-13T05:59:15.450Z,71.32
2019-03-13T06:00:15.414Z,71.32
2019-03-13T06:01:15.460Z,71.01
2019-03-13T06:02:15.345Z,71.11
2019-03-13T06:03:15.334Z,71.11
2019-03-13T06:04:15.278Z,71.01
2019-03-13T06:05:15.241Z,71.22
2019-03-13T06:06:15.230Z,71.11
2019-03-13T06:07:15.172Z,71.01
2019-03-13T06:08:18.292Z,71.11
2019-03-13T06:09:15.670Z,71.22
2019-03-13T06:10:15.691Z,71.01
2019-03-13T06:11:15.077Z,71.01
2019-03-13T06:12:15.002Z,71.01
2019-03-13T06:13:14.969Z,71.22
2019-03-13T06:14:15.665Z,71.01
2019-03-13T06:15:14.907Z,71.32
2019-03-13T06:16:14.903Z,71.01
2019-03-13T06:17:14.832Z,70.87
2019-03-13T06:18:14.798Z,70.76
2019-03-13T06:19:14.766Z,70.25
2019-03-13T06:20:14.734Z,70.46
2019-03-13T06:21:14.720Z,70.46
2019-03-13T06:22:14.664Z,70.21
2019-03-13T06:23:15.165Z,70.08
2019-03-13T06:24:14.597Z,69.56
2019-03-13T06:25:14.584Z,69.56
2019-03-13T06:26:14.589Z,69.56
2019-03-13T06:27:14.498Z,69.32
2019-03-13T06:28:14.460Z,68.84
2019-03-13T06:29:15.168Z,69.01
2019-03-13T06:30:14.390Z,68.91
2019-03-13T06:31:14.402Z,68.29
2019-03-13T06:32:14.342Z,68.40
2019-03-13T06:33:14.291Z,68.29
2019-03-13T06:34:15.166Z,68.49
2019-03-13T06:35:14.220Z,67.77
2019-03-13T06:36:14.728Z,68.67
2019-03-13T06:37:14.160Z,68.46
2019-03-13T06:38:14.135Z,67.82
2019-03-13T06:39:14.088Z,67.40
2019-03-13T06:40:14.056Z,67.30
2019-03-13T06:41:14.044Z,67.09
2019-03-13T06:42:13.995Z,67.09
2019-03-13T06:43:13.961Z,66.33
2019-03-13T06:44:13.922Z,66.33
2019-03-13T06:45:13.888Z,66.26
2019-03-13T06:46:13.880Z,66.33
2019-03-13T06:47:13.823Z,66.33
2019-03-13T06:48:13.808Z,66.57
2019-03-13T06:49:13.757Z,66.99
2019-03-13T06:50:13.741Z,66.99
2019-03-13T06:51:13.703Z,66.54
2019-03-13T06:52:13.681Z,66.47
2019-03-13T06:53:13.634Z,65.95
2019-03-13T06:54:13.597Z,66.36
2019-03-13T06:55:13.561Z,66.47
2019-03-13T06:56:13.528Z,66.50
2019-03-13T06:57:13.518Z,66.67
2019-03-13T06:58:13.459Z,66.47
2019-03-13T06:59:13.853Z,66.99
2019-03-13T07:00:13.399Z,66.57
2019-03-13T07:01:13.372Z,66.06
2019-03-13T07:02:13.355Z,66.06
2019-03-13T07:03:13.301Z,66.36
2019-03-13T07:04:13.264Z,66.67
2019-03-13T07:05:13.226Z,65.95
2019-03-13T07:06:13.206Z,65.54
2019-03-13T07:07:13.268Z,64.61
2019-03-13T07:08:13.137Z,65.82
2019-03-13T07:09:13.106Z,64.58
2019-03-13T07:10:13.067Z,64.89
2019-03-13T07:11:13.032Z,65.51
2019-03-13T07:12:13.025Z,65.30
2019-03-13T07:13:12.967Z,65.41
2019-03-13T07:14:13.669Z,64.58
2019-03-13T07:15:13.671Z,64.99
2019-03-13T07:16:13.675Z,64.48
2019-03-13T07:17:12.865Z,64.99
2019-03-13T07:18:12.801Z,64.68
2019-03-13T07:19:12.769Z,65.06
2019-03-13T07:20:12.741Z,64.99
2019-03-13T07:21:12.707Z,64.86
2019-03-13T07:22:12.694Z,64.89
2019-03-13T07:23:12.666Z,64.86
2019-03-13T07:24:12.603Z,64.76
2019-03-13T07:25:12.591Z,64.34
2019-03-13T07:26:12.534Z,64.55
2019-03-13T07:27:12.529Z,63.82
2019-03-13T07:28:12.481Z,63.82
2019-03-13T07:29:12.950Z,64.34
2019-03-13T07:30:12.405Z,63.72
2019-03-13T07:31:12.380Z,63.07
2019-03-13T07:32:12.366Z,62.63
2019-03-13T07:33:12.305Z,62.63
2019-03-13T07:34:12.278Z,61.60
2019-03-13T07:35:12.249Z,62.32
2019-03-13T07:36:12.208Z,62.01
2019-03-13T07:37:12.214Z,62.43
2019-03-13T07:38:12.151Z,62.43
2019-03-13T07:39:12.117Z,63.35
2019-03-13T07:40:12.080Z,62.32
2019-03-13T07:41:12.045Z,62.25
2019-03-13T07:42:12.038Z,62.66
2019-03-13T07:43:11.981Z,62.97
2019-03-13T07:44:12.771Z,62.66
2019-03-13T07:45:11.919Z,63.42
2019-03-13T07:46:11.884Z,63.42
2019-03-13T07:47:11.940Z,63.62
2019-03-13T07:48:11.818Z,63.82
2019-03-13T07:49:11.781Z,64.03
2019-03-13T07:50:11.753Z,64.03
2019-03-13T07:51:11.725Z,63.28
2019-03-13T07:52:12.674Z,63.82
2019-03-13T07:53:11.710Z,63.10
2019-03-13T07:54:12.175Z,63.79
2019-03-13T07:55:12.175Z,63.79
2019-03-13T07:56:12.186Z,62.66
2019-03-13T07:57:11.523Z,62.55
2019-03-13T07:58:11.513Z,62.32
2019-03-13T07:59:12.183Z,62.22
2019-03-13T08:00:11.439Z,62.01
2019-03-13T08:01:11.390Z,62.53
2019-03-13T08:02:11.358Z,62.32
2019-03-13T08:03:11.355Z,62.29
2019-03-13T08:04:11.299Z,61.57
2019-03-13T08:05:11.261Z,60.93
2019-03-13T08:06:11.228Z,60.93
2019-03-13T08:07:11.196Z,61.13
2019-03-13T08:08:11.227Z,60.49
2019-03-13T08:09:11.130Z,60.59
2019-03-13T08:10:11.097Z,59.42
2019-03-13T08:11:11.120Z,59.53
2019-03-13T08:12:11.034Z,59.12
2019-03-13T08:13:11.024Z,59.19
2019-03-13T08:14:10.971Z,59.19
2019-03-13T08:15:10.937Z,57.65
2019-03-13T08:16:10.903Z,57.96
2019-03-13T08:17:10.873Z,57.62
2019-03-13T08:18:10.883Z,57.18
2019-03-13T08:19:10.815Z,57.26
2019-03-13T08:20:10.782Z,56.54
2019-03-13T08:21:10.756Z,56.23
2019-03-13T08:22:10.711Z,55.08
2019-03-13T08:23:10.706Z,55.49
2019-03-13T08:24:10.670Z,55.69
2019-03-13T08:25:10.616Z,56.72
2019-03-13T08:26:10.585Z,55.36
2019-03-13T08:27:10.555Z,54.74
2019-03-13T08:28:10.549Z,54.85
2019-03-13T08:29:10.503Z,55.26
2019-03-13T08:30:10.464Z,54.72
2019-03-13T08:31:10.434Z,55.33
2019-03-13T08:32:10.409Z,54.30
2019-03-13T08:33:10.453Z,53.97
2019-03-13T08:34:10.339Z,53.89
2019-03-13T08:35:10.310Z,54.21
2019-03-13T08:36:10.278Z,54.21
2019-03-13T08:37:10.248Z,53.89
2019-03-13T08:38:10.253Z,54.43
2019-03-13T08:39:10.190Z,54.85
2019-03-13T08:40:10.157Z,54.56
2019-03-13T08:41:10.137Z,55.10
2019-03-13T08:42:10.097Z,55.64
2019-03-13T08:43:10.069Z,56.67
2019-03-13T08:44:10.061Z,56.90
2019-03-13T08:45:10.006Z,56.29
2019-03-13T08:46:09.977Z,56.46
2019-03-13T08:47:09.955Z,56.77
2019-03-13T08:48:09.915Z,56.95
2019-03-13T08:49:09.949Z,56.54
2019-03-13T08:50:09.857Z,56.51
2019-03-13T08:51:09.821Z,56.62
2019-03-13T08:52:09.790Z,56.21
2019-03-13T08:53:09.761Z,55.15
2019-03-13T08:54:09.759Z,55.26
2019-03-13T08:55:09.699Z,54.97
2019-03-13T08:56:09.671Z,55.05
2019-03-13T08:57:09.641Z,55.26
2019-03-13T08:58:09.653Z,54.92
2019-03-13T08:59:09.602Z,55.33
2019-03-13T09:00:09.549Z,54.61
2019-03-13T09:01:09.518Z,55.00
2019-03-13T09:02:09.487Z,54.69
2019-03-13T09:03:09.451Z,54.15
2019-03-13T09:04:09.449Z,53.74
2019-03-13T09:05:09.395Z,52.92
2019-03-13T09:06:09.497Z,53.64
2019-03-13T09:07:09.337Z,53.72
2019-03-13T09:08:09.310Z,52.90
2019-03-13T09:09:09.313Z,53.00
2019-03-13T09:10:09.238Z,53.00
2019-03-13T09:11:09.215Z,52.90
2019-03-13T09:12:09.689Z,52.28
2019-03-13T09:13:09.171Z,51.98
2019-03-13T09:14:09.118Z,52.18
2019-03-13T09:15:09.113Z,52.69
2019-03-13T09:16:09.063Z,52.39
2019-03-13T09:17:09.034Z,52.39
2019-03-13T09:18:09.002Z,52.26
2019-03-13T09:19:08.975Z,51.62
2019-03-13T09:20:08.989Z,51.72
2019-03-13T09:21:08.915Z,51.10
2019-03-13T09:22:08.990Z,51.34
2019-03-13T09:23:08.852Z,52.08
2019-03-13T09:24:08.823Z,52.08
2019-03-13T09:25:12.516Z,52.08
2019-03-13T09:26:09.694Z,51.98
2019-03-13T09:27:08.732Z,52.39
2019-03-13T09:28:08.704Z,53.00
2019-03-13T09:29:08.677Z,52.97
2019-03-13T09:30:08.670Z,51.62
2019-03-13T09:31:08.620Z,51.31
2019-03-13T09:32:09.103Z,51.01
2019-03-13T09:33:08.572Z,50.47
2019-03-13T09:34:08.526Z,50.96
2019-03-13T09:35:08.497Z,51.06
2019-03-13T09:36:08.760Z,50.96
2019-03-13T09:37:08.442Z,51.04
2019-03-13T09:38:08.409Z,50.63
2019-03-13T09:39:08.376Z,49.58
2019-03-13T09:40:08.356Z,49.38
2019-03-13T09:41:08.349Z,49.09
2019-03-13T09:42:08.310Z,49.09
2019-03-13T09:43:08.269Z,50.04
2019-03-13T09:44:08.243Z,50.45
2019-03-13T09:45:08.204Z,49.52
2019-03-13T09:46:09.100Z,49.91
2019-03-13T09:47:08.156Z,48.86
2019-03-13T09:48:08.122Z,48.97
2019-03-13T09:49:08.116Z,49.40
2019-03-13T09:50:08.092Z,48.38
2019-03-13T09:51:08.072Z,48.19
2019-03-13T09:52:08.004Z,48.19
2019-03-13T09:53:07.984Z,47.58
2019-03-13T09:54:07.949Z,49.32
2019-03-13T09:55:07.918Z,49.11
2019-03-13T09:56:07.917Z,49.22
2019-03-13T09:57:07.861Z,47.91
2019-03-13T09:58:07.834Z,49.55
2019-03-13T09:59:07.844Z,49.77
2019-03-13T10:00:07.781Z,49.57
2019-03-13T10:01:07.787Z,49.06
2019-03-13T10:02:07.718Z,48.52
2019-03-13T10:03:07.688Z,49.14
2019-03-13T10:04:07.659Z,49.42
2019-03-13T10:05:07.632Z,48.50
2019-03-13T10:06:07.606Z,48.50
2019-03-13T10:07:07.743Z,47.78
2019-03-13T10:08:07.550Z,48.50
2019-03-13T10:09:07.520Z,48.48
2019-03-13T10:10:07.485Z,48.07
2019-03-13T10:11:08.214Z,46.74
2019-03-13T10:12:07.741Z,47.35
2019-03-13T10:13:07.420Z,47.35
2019-03-13T10:14:07.371Z,47.15
2019-03-13T10:15:07.339Z,46.92
2019-03-13T10:16:07.332Z,47.23
2019-03-13T10:17:10.997Z,48.05
2019-03-13T10:18:08.209Z,47.15
2019-03-13T10:19:07.251Z,47.27
2019-03-13T10:20:07.204Z,47.35
2019-03-13T10:21:07.172Z,46.72
2019-03-13T10:22:07.184Z,46.11
2019-03-13T10:23:07.129Z,46.92
2019-03-13T10:24:07.087Z,46.21
2019-03-13T10:25:07.110Z,46.51
2019-03-13T10:26:07.029Z,46.21
2019-03-13T10:27:07.035Z,47.05
2019-03-13T10:28:06.972Z,47.86
2019-03-13T10:29:06.940Z,48.09
2019-03-13T10:30:06.918Z,48.48
2019-03-13T10:31:06.882Z,48.50
2019-03-13T10:32:06.858Z,47.89
2019-03-13T10:33:06.850Z,48.50
2019-03-13T10:34:06.800Z,47.50
2019-03-13T10:35:06.777Z,48.44
2019-03-13T10:36:06.742Z,48.55
2019-03-13T10:37:06.715Z,47.93
2019-03-13T10:38:13.778Z,49.26
2019-03-13T10:39:06.740Z,48.01
2019-03-13T10:40:06.629Z,47.58
2019-03-13T10:41:06.595Z,48.09
2019-03-13T10:42:06.566Z,47.48
2019-03-13T10:43:06.571Z,47.63
2019-03-13T10:44:06.510Z,47.63
2019-03-13T10:45:06.486Z,47.52
2019-03-13T10:46:06.446Z,48.03
2019-03-13T10:47:06.419Z,48.03
2019-03-13T10:48:06.417Z,47.60
2019-03-13T10:49:06.358Z,47.50
2019-03-13T10:50:06.345Z,47.50
2019-03-13T10:51:06.311Z,47.63
2019-03-13T10:52:06.271Z,47.93
2019-03-13T10:53:06.300Z,48.44
2019-03-13T10:54:06.211Z,48.55
2019-03-13T10:55:06.185Z,49.34
2019-03-13T10:56:06.156Z,48.22
2019-03-13T10:57:06.151Z,46.68
2019-03-13T10:58:06.144Z,47.68
2019-03-13T10:59:06.060Z,46.97
2019-03-13T11:00:06.031Z,45.31
2019-03-13T11:01:06.006Z,45.39
2019-03-13T11:02:06.003Z,45.29
2019-03-13T11:03:05.946Z,45.39
2019-03-13T11:04:05.939Z,45.39
2019-03-13T11:05:05.884Z,45.08
2019-03-13T11:06:05.893Z,45.08
2019-03-13T11:07:05.823Z,45.39
2019-03-13T11:08:06.708Z,45.59
2019-03-13T11:09:05.830Z,45.49
2019-03-13T11:10:05.734Z,45.29
2019-03-13T11:11:05.710Z,45.90
2019-03-13T11:12:05.678Z,45.39
2019-03-13T11:13:05.652Z,44.76
2019-03-13T11:14:15.422Z,44.84
2019-03-13T11:15:06.218Z,44.45
2019-03-13T11:16:05.627Z,44.63
2019-03-13T11:17:06.214Z,45.35
2019-03-13T11:18:05.548Z,44.63
2019-03-13T11:19:05.631Z,45.04
2019-03-13T11:20:05.520Z,45.25
2019-03-13T11:21:06.223Z,44.84
2019-03-13T11:22:05.387Z,44.32
2019-03-13T11:23:05.367Z,44.85
2019-03-13T11:24:05.339Z,45.55
2019-03-13T11:25:05.744Z,45.32
2019-03-13T11:26:05.287Z,44.28
2019-03-13T11:27:05.246Z,43.77
2019-03-13T11:28:05.721Z,44.08
2019-03-13T11:29:05.194Z,43.57
2019-03-13T11:30:05.207Z,43.88
2019-03-13T11:31:05.129Z,44.00
2019-03-13T11:32:05.102Z,44.28
2019-03-13T11:33:05.084Z,44.02
2019-03-13T11:34:05.045Z,45.35
2019-03-13T11:35:05.311Z,44.81
2019-03-13T11:36:04.994Z,44.69
2019-03-13T11:37:04.971Z,45.20
2019-03-13T11:38:04.932Z,44.57
2019-03-13T11:39:04.904Z,44.79
2019-03-13T11:40:04.902Z,45.28
2019-03-13T11:41:04.849Z,44.87
2019-03-13T11:42:04.840Z,44.79
2019-03-13T11:43:04.831Z,43.91
2019-03-13T11:44:04.765Z,44.94
2019-03-13T11:45:04.769Z,44.73
2019-03-13T11:46:04.712Z,45.12
2019-03-13T11:47:04.684Z,45.25
2019-03-13T11:48:04.659Z,44.84
2019-03-13T11:49:04.630Z,45.65
2019-03-13T11:50:04.602Z,45.25
2019-03-13T11:51:04.594Z,45.26
2019-03-13T11:52:05.218Z,45.06
2019-03-13T11:53:04.528Z,45.37
2019-03-13T11:54:05.219Z,46.00
2019-03-13T11:55:04.467Z,45.59
2019-03-13T11:56:04.455Z,46.53
2019-03-13T11:57:04.399Z,46.44
2019-03-13T11:58:04.373Z,47.38
2019-03-13T11:59:04.344Z,47.48
2019-03-13T12:00:04.315Z,47.58
2019-03-13T12:01:04.315Z,47.48
2019-03-13T12:02:04.276Z,47.89
2019-03-13T12:03:04.243Z,47.48
2019-03-13T12:04:04.205Z,47.48
2019-03-13T12:05:04.720Z,47.45
2019-03-13T12:06:04.172Z,47.56
2019-03-13T12:07:04.138Z,47.45
2019-03-13T12:08:04.722Z,47.66
2019-03-13T12:09:04.062Z,48.17
2019-03-13T12:10:04.031Z,47.56
2019-03-13T12:11:04.028Z,47.68
2019-03-13T12:12:03.975Z,47.86
2019-03-13T12:13:03.943Z,47.66
2019-03-13T12:14:03.923Z,47.53
2019-03-13T12:15:03.894Z,47.23
2019-03-13T12:16:03.881Z,47.64
2019-03-13T12:17:03.836Z,47.76
2019-03-13T12:18:03.800Z,47.66
2019-03-13T12:19:03.772Z,47.66
2019-03-13T12:20:03.766Z,47.64
2019-03-13T12:21:03.736Z,47.33
2019-03-13T12:22:03.694Z,47.33
2019-03-13T12:23:03.664Z,46.80
2019-03-13T12:24:03.632Z,47.31
2019-03-13T12:25:03.600Z,47.82
2019-03-13T12:26:03.862Z,47.44
2019-03-13T12:27:03.542Z,47.56
2019-03-13T12:28:03.515Z,48.19
2019-03-13T12:29:03.489Z,47.89
2019-03-13T12:30:04.229Z,47.58
2019-03-13T12:31:03.471Z,47.89
2019-03-13T12:32:03.401Z,47.78
2019-03-13T12:33:03.372Z,48.81
2019-03-13T12:34:03.357Z,48.19
2019-03-13T12:35:03.314Z,48.50
2019-03-13T12:36:03.321Z,48.30
2019-03-13T12:37:03.259Z,48.63
2019-03-13T12:38:03.231Z,47.91
2019-03-13T12:39:03.206Z,49.14
2019-03-13T12:40:03.171Z,48.63
2019-03-13T12:41:03.169Z,49.47
2019-03-13T12:42:03.173Z,48.96
2019-03-13T12:43:04.138Z,49.88
2019-03-13T12:44:03.167Z,49.47
2019-03-13T12:45:03.029Z,49.67
2019-03-13T12:46:03.732Z,50.80
2019-03-13T12:47:02.989Z,50.72
2019-03-13T12:48:15.883Z,50.59
2019-03-13T12:49:02.919Z,50.80
2019-03-13T12:50:02.944Z,50.21
2019-03-13T12:51:02.848Z,50.42
2019-03-13T12:52:02.857Z,50.21